createdAt,value
2022-07-29T00:00:33.044Z,84.90
2022-07-29T00:03:00.468Z,85.20
2022-07-29T00:05:27.935Z,85.40
2022-07-29T00:07:55.371Z,85.60
2022-07-29T00:10:23.434Z,86.00
2022-07-29T00:12:55.353Z,86.00
2022-07-29T00:15:23.145Z,86.20
2022-07-29T00:17:53.401Z,86.50
2022-07-29T00:20:20.819Z,86.40
2022-07-29T00:22:48.355Z,86.40
2022-07-29T00:25:15.846Z,86.40
2022-07-29T00:27:43.166Z,86.30
2022-07-29T00:30:10.708Z,86.20
2022-07-29T00:32:40.122Z,86.20
2022-07-29T00:35:29.187Z,86.40
2022-07-29T00:37:57.216Z,86.40
2022-07-29T00:40:25.167Z,87.00
2022-07-29T00:42:55.551Z,86.10
2022-07-29T00:45:23.254Z,86.50
2022-07-29T00:47:51.041Z,86.20
2022-07-29T00:50:21.469Z,86.70
2022-07-29T00:52:48.897Z,86.00
2022-07-29T00:55:17.882Z,86.00
2022-07-29T00:57:46.934Z,86.00
2022-07-29T01:00:18.696Z,86.40
2022-07-29T01:02:49.194Z,86.10
2022-07-29T01:05:19.331Z,85.80
2022-07-29T01:07:47.731Z,86.20
2022-07-29T01:10:16.939Z,86.00
2022-07-29T01:12:46.151Z,86.10
2022-07-29T01:15:13.826Z,86.10
2022-07-29T01:18:22.165Z,86.10
2022-07-29T01:21:22.620Z,86.60
2022-07-29T01:24:13.143Z,86.70
2022-07-29T01:26:53.240Z,86.80
2022-07-29T01:29:47.567Z,86.90
2022-07-29T01:32:29.537Z,86.80
2022-07-29T01:35:06.751Z,87.40
2022-07-29T01:38:06.197Z,87.60
2022-07-29T01:40:50.106Z,87.70
2022-07-29T01:43:28.157Z,87.80
2022-07-29T01:46:01.479Z,88.20
2022-07-29T01:48:54.141Z,88.10
2022-07-29T01:51:38.295Z,88.30
2022-07-29T01:54:08.234Z,88.30
2022-07-29T01:56:37.395Z,88.50
2022-07-29T01:59:07.081Z,88.70
2022-07-29T02:01:37.678Z,88.70
2022-07-29T02:04:10.861Z,89.50
2022-07-29T02:06:44.323Z,90.00
2022-07-29T02:09:14.928Z,90.30
2022-07-29T02:11:48.658Z,90.10
2022-07-29T02:14:21.239Z,90.10
2022-07-29T02:16:55.272Z,90.70
2022-07-29T02:19:28.055Z,90.60
2022-07-29T02:22:00.080Z,90.40
2022-07-29T02:24:32.008Z,90.30
2022-07-29T02:27:02.504Z,90.60
2022-07-29T02:29:33.496Z,91.00
2022-07-29T02:32:06.926Z,91.10
2022-07-29T02:34:34.682Z,91.10
2022-07-29T02:37:04.263Z,91.30
2022-07-29T02:39:32.982Z,91.30
2022-07-29T02:42:06.769Z,91.30
2022-07-29T02:44:36.071Z,91.20
2022-07-29T02:47:08.907Z,91.10
2022-07-29T02:49:58.971Z,91.20
2022-07-29T02:52:32.720Z,91.30
2022-07-29T02:55:06.977Z,91.20
2022-07-29T02:57:57.477Z,91.20
2022-07-29T03:00:34.476Z,91.40
2022-07-29T03:03:05.098Z,91.30
2022-07-29T03:05:33.124Z,91.50
2022-07-29T03:08:05.369Z,91.30
2022-07-29T03:10:33.816Z,91.50
2022-07-29T03:13:04.421Z,91.40
2022-07-29T03:15:32.798Z,91.40
2022-07-29T03:18:00.998Z,91.40
2022-07-29T03:20:30.886Z,91.50
2022-07-29T03:23:00.393Z,91.60
2022-07-29T03:25:30.163Z,91.50
2022-07-29T03:27:58.184Z,91.60
2022-07-29T03:30:28.090Z,91.70
2022-07-29T03:32:58.926Z,91.80
2022-07-29T03:35:26.362Z,92.10
2022-07-29T03:37:53.764Z,92.60
2022-07-29T03:40:34.095Z,92.70
2022-07-29T03:43:03.733Z,92.70
2022-07-29T03:45:32.107Z,92.90
2022-07-29T03:48:06.593Z,92.90
2022-07-29T03:50:39.173Z,93.00
2022-07-29T03:53:06.911Z,92.90
2022-07-29T03:55:42.137Z,93.00
2022-07-29T03:58:13.612Z,93.00
2022-07-29T04:00:44.952Z,92.80
2022-07-29T04:03:15.787Z,92.90
2022-07-29T04:05:43.996Z,93.30
2022-07-29T04:08:11.742Z,93.60
2022-07-29T04:10:39.756Z,93.90
2022-07-29T04:13:07.573Z,93.90
2022-07-29T04:15:34.985Z,94.30
2022-07-29T04:18:02.679Z,94.60
2022-07-29T04:20:31.060Z,94.50
2022-07-29T04:22:58.831Z,94.70
2022-07-29T04:25:26.482Z,95.00
2022-07-29T04:28:02.562Z,95.00
2022-07-29T04:30:32.017Z,95.20
2022-07-29T04:33:05.642Z,95.20
2022-07-29T04:35:38.670Z,95.40
2022-07-29T04:38:15.800Z,95.60
2022-07-29T04:40:47.093Z,95.70
2022-07-29T04:43:15.977Z,96.00
2022-07-29T04:45:43.422Z,96.10
2022-07-29T04:48:13.846Z,96.20
2022-07-29T04:50:43.393Z,96.40
2022-07-29T04:53:10.990Z,96.30
2022-07-29T04:55:41.132Z,96.30
2022-07-29T04:58:08.681Z,96.20
2022-07-29T05:00:37.901Z,96.40
2022-07-29T05:03:05.420Z,96.20
2022-07-29T05:05:32.853Z,96.30
2022-07-29T05:08:01.029Z,97.00
2022-07-29T05:10:29.076Z,97.50
2022-07-29T05:12:56.380Z,97.50
2022-07-29T05:15:23.638Z,97.60
2022-07-29T05:17:53.791Z,97.80
2022-07-29T05:20:27.142Z,98.00
2022-07-29T05:22:55.648Z,97.70
2022-07-29T05:25:22.992Z,97.50
2022-07-29T05:27:51.034Z,97.50
2022-07-29T05:30:21.823Z,97.60
2022-07-29T05:32:49.217Z,97.40
2022-07-29T05:35:19.556Z,97.50
2022-07-29T05:37:49.133Z,97.40
2022-07-29T05:40:19.566Z,97.40
2022-07-29T05:42:47.314Z,97.30
2022-07-29T05:45:15.146Z,97.50
2022-07-29T05:47:42.386Z,97.60
2022-07-29T05:50:11.527Z,97.50
2022-07-29T05:52:38.945Z,97.10
2022-07-29T05:55:09.618Z,97.00
2022-07-29T05:57:40.351Z,96.70
2022-07-29T06:00:08.703Z,96.90
2022-07-29T06:02:36.096Z,96.50
2022-07-29T06:05:04.023Z,97.60
2022-07-29T06:07:33.906Z,96.80
2022-07-29T06:10:04.292Z,97.10
2022-07-29T06:12:34.190Z,96.50
2022-07-29T06:15:02.093Z,96.30
2022-07-29T06:17:30.013Z,95.80
2022-07-29T06:20:02.285Z,96.00
2022-07-29T06:22:30.014Z,96.00
2022-07-29T06:24:57.309Z,95.80
2022-07-29T06:27:24.633Z,95.70
2022-07-29T06:29:53.221Z,95.30
2022-07-29T06:32:22.795Z,95.60
2022-07-29T06:34:51.074Z,95.90
2022-07-29T06:37:18.947Z,95.90
2022-07-29T06:39:47.029Z,95.90
2022-07-29T06:42:16.925Z,95.90
2022-07-29T06:44:46.824Z,95.60
2022-07-29T06:47:17.292Z,94.70
2022-07-29T06:49:46.695Z,93.90
2022-07-29T06:52:14.321Z,94.30
2022-07-29T06:54:48.789Z,94.20
2022-07-29T06:57:16.041Z,93.00
2022-07-29T06:59:43.765Z,93.50
2022-07-29T07:02:11.239Z,93.20
2022-07-29T07:04:41.841Z,93.10
2022-07-29T07:07:11.469Z,93.10
2022-07-29T07:09:40.414Z,92.60
2022-07-29T07:12:10.791Z,91.30
2022-07-29T07:14:38.153Z,91.20
2022-07-29T07:17:05.654Z,91.20
2022-07-29T07:19:32.956Z,91.50
2022-07-29T07:22:00.296Z,91.10
2022-07-29T07:24:28.840Z,90.00
2022-07-29T07:26:56.224Z,90.10
2022-07-29T07:29:26.389Z,89.40
2022-07-29T07:32:00.882Z,88.90
2022-07-29T07:34:29.710Z,87.10
2022-07-29T07:37:00.017Z,86.50
2022-07-29T07:39:32.420Z,85.40
2022-07-29T07:42:02.448Z,85.00
2022-07-29T07:44:29.759Z,83.70
2022-07-29T07:46:57.116Z,84.80
2022-07-29T07:49:31.238Z,83.70
2022-07-29T07:52:00.792Z,83.20
2022-07-29T07:54:28.239Z,81.80
2022-07-29T07:56:58.371Z,80.40
2022-07-29T07:59:26.577Z,79.20
2022-07-29T08:01:55.668Z,80.00
2022-07-29T08:04:28.719Z,78.30
2022-07-29T08:06:57.160Z,78.40
2022-07-29T08:09:30.356Z,75.20
2022-07-29T08:12:04.616Z,78.20
2022-07-29T08:14:32.436Z,77.10
2022-07-29T08:17:00.506Z,75.40
2022-07-29T08:19:28.840Z,74.50
2022-07-29T08:21:56.660Z,75.10
2022-07-29T08:24:59.515Z,74.80
2022-07-29T08:27:43.438Z,73.10
2022-07-29T08:30:13.903Z,73.60
2022-07-29T08:32:53.634Z,72.40
2022-07-29T08:35:25.969Z,72.10
2022-07-29T08:37:54.415Z,71.90
2022-07-29T08:40:30.565Z,72.50
2022-07-29T08:43:09.586Z,73.00
2022-07-29T08:45:48.004Z,70.70
2022-07-29T08:48:25.756Z,70.30
2022-07-29T08:50:57.510Z,68.70
2022-07-29T08:53:27.682Z,70.50
2022-07-29T08:55:55.892Z,70.90
2022-07-29T08:58:25.319Z,71.00
2022-07-29T09:00:58.230Z,70.40
2022-07-29T09:03:28.215Z,68.70
2022-07-29T09:05:55.974Z,69.20
2022-07-29T09:08:24.312Z,67.70
2022-07-29T09:10:55.364Z,68.50
2022-07-29T09:13:25.864Z,68.20
2022-07-29T09:15:53.862Z,70.30
2022-07-29T09:18:42.854Z,68.30
2022-07-29T09:21:34.771Z,68.40
2022-07-29T09:24:15.514Z,68.50
2022-07-29T09:26:47.597Z,68.60
2022-07-29T09:29:17.689Z,65.70
2022-07-29T09:31:48.147Z,69.80
2022-07-29T09:34:37.363Z,66.80
2022-07-29T09:37:07.039Z,68.60
2022-07-29T09:39:37.393Z,64.50
2022-07-29T09:42:08.208Z,68.20
2022-07-29T09:44:47.165Z,65.70
2022-07-29T09:47:19.753Z,69.10
2022-07-29T09:50:01.169Z,67.50
2022-07-29T09:52:32.711Z,67.60
2022-07-29T09:55:13.575Z,65.50
2022-07-29T09:57:46.601Z,68.70
2022-07-29T10:00:19.139Z,68.30
2022-07-29T10:02:48.356Z,66.60
2022-07-29T10:05:27.105Z,62.70
2022-07-29T10:08:04.641Z,64.80
2022-07-29T10:10:34.870Z,62.20
2022-07-29T10:13:13.441Z,63.10
2022-07-29T10:15:47.675Z,62.60
2022-07-29T10:18:20.961Z,62.00
2022-07-29T10:20:51.050Z,63.60
2022-07-29T10:23:18.396Z,60.70
2022-07-29T10:25:47.529Z,63.80
2022-07-29T10:28:16.809Z,61.50
2022-07-29T10:30:46.098Z,62.90
2022-07-29T10:33:39.774Z,59.40
2022-07-29T10:36:31.670Z,61.00
2022-07-29T10:39:13.297Z,61.10
2022-07-29T10:42:29.635Z,59.30
2022-07-29T10:45:04.448Z,59.10
2022-07-29T10:47:35.412Z,59.10
2022-07-29T10:50:13.993Z,61.90
2022-07-29T10:52:51.229Z,58.30
2022-07-29T10:55:45.431Z,59.90
2022-07-29T10:58:24.713Z,59.20
2022-07-29T11:00:57.629Z,57.20
2022-07-29T11:03:49.292Z,58.60
2022-07-29T11:06:26.325Z,57.70
2022-07-29T11:09:18.247Z,57.90
2022-07-29T11:11:51.587Z,57.60
2022-07-29T11:14:20.183Z,57.90
2022-07-29T11:17:09.177Z,59.90
2022-07-29T11:19:44.730Z,58.10
2022-07-29T11:22:37.219Z,57.80
2022-07-29T11:25:17.672Z,57.00
2022-07-29T11:27:46.792Z,55.10
2022-07-29T11:30:21.526Z,56.20
2022-07-29T11:32:52.649Z,54.80
2022-07-29T11:35:37.073Z,55.70
2022-07-29T11:41:25.519Z,55.30
2022-07-29T11:44:01.558Z,54.80
2022-07-29T11:46:48.283Z,54.80
2022-07-29T11:49:32.294Z,56.60
2022-07-29T11:52:04.898Z,56.10
2022-07-29T11:57:35.958Z,56.00
2022-07-29T12:00:12.441Z,55.00
2022-07-29T12:02:48.227Z,55.10
2022-07-29T12:05:35.912Z,54.10
2022-07-29T12:07:03.466Z,54.90
2022-07-29T12:08:12.589Z,54.50
2022-07-29T12:10:44.673Z,55.00
2022-07-29T12:13:13.365Z,56.60
2022-07-29T12:15:46.964Z,56.60
2022-07-29T12:18:24.299Z,57.50
2022-07-29T12:20:59.541Z,54.50
2022-07-29T12:23:34.929Z,55.20
2022-07-29T12:26:10.579Z,54.50
2022-07-29T12:28:39.831Z,58.30
2022-07-29T12:31:14.811Z,57.70
2022-07-29T12:33:42.841Z,57.70
2022-07-29T12:36:17.561Z,55.80
2022-07-29T12:38:46.353Z,54.60
2022-07-29T12:41:16.353Z,55.40
2022-07-29T12:43:54.730Z,53.60
2022-07-29T12:46:23.233Z,54.60
2022-07-29T12:48:58.716Z,55.20
2022-07-29T12:51:41.783Z,54.00
2022-07-29T12:54:17.104Z,56.00
2022-07-29T12:56:45.997Z,58.10
2022-07-29T12:59:14.552Z,57.60
2022-07-29T13:01:42.080Z,55.60
2022-07-29T13:04:09.468Z,55.80
2022-07-29T13:06:49.602Z,56.60
2022-07-29T13:09:24.903Z,55.80
2022-07-29T13:11:54.134Z,55.70
2022-07-29T13:14:33.966Z,55.20
2022-07-29T13:17:16.670Z,55.00
2022-07-29T13:19:48.033Z,55.20
2022-07-29T13:22:21.974Z,51.70
2022-07-29T13:24:57.857Z,53.60
2022-07-29T13:27:28.102Z,54.90
2022-07-29T13:30:00.764Z,56.00
2022-07-29T13:32:29.881Z,57.10
2022-07-29T13:34:58.903Z,55.60
2022-07-29T13:37:26.983Z,57.80
2022-07-29T13:39:55.305Z,56.40
2022-07-29T13:42:23.569Z,56.70
2022-07-29T13:44:52.612Z,56.40
2022-07-29T13:47:21.531Z,59.30
2022-07-29T13:49:50.531Z,58.40
2022-07-29T13:52:21.587Z,60.20
2022-07-29T13:54:49.796Z,59.90
2022-07-29T13:57:20.669Z,59.80
2022-07-29T13:59:53.418Z,60.00
2022-07-29T14:02:25.311Z,58.60
2022-07-29T14:04:56.675Z,59.90
2022-07-29T14:07:24.045Z,57.20
2022-07-29T14:09:52.237Z,56.80
2022-07-29T14:12:20.122Z,57.80
2022-07-29T14:14:47.693Z,58.40
2022-07-29T14:17:18.762Z,56.90
2022-07-29T14:19:46.143Z,59.20
2022-07-29T14:22:13.742Z,59.00
2022-07-29T14:24:41.782Z,58.40
2022-07-29T14:27:12.266Z,59.10
2022-07-29T14:29:39.637Z,60.30
2022-07-29T14:32:08.703Z,59.30
2022-07-29T14:34:37.855Z,60.10
2022-07-29T14:37:09.526Z,59.90
2022-07-29T14:39:44.285Z,60.00
2022-07-29T14:42:14.204Z,59.10
2022-07-29T14:44:44.668Z,59.40
2022-07-29T14:47:12.098Z,60.00
2022-07-29T14:49:39.844Z,60.60
2022-07-29T14:52:11.826Z,60.90
2022-07-29T14:54:39.092Z,60.90
2022-07-29T14:57:07.633Z,60.50
2022-07-29T14:59:37.992Z,61.40
2022-07-29T15:02:09.424Z,62.40
2022-07-29T15:04:41.647Z,61.20
2022-07-29T15:07:11.921Z,63.30
2022-07-29T15:09:40.209Z,60.10
2022-07-29T15:12:16.657Z,60.20
2022-07-29T15:14:44.072Z,59.10
2022-07-29T15:17:13.575Z,59.50
2022-07-29T15:19:45.065Z,58.70
2022-07-29T15:22:12.826Z,60.20
2022-07-29T15:24:40.291Z,59.10
2022-07-29T15:27:14.935Z,59.40
2022-07-29T15:29:43.423Z,60.90
2022-07-29T15:32:11.856Z,59.30
2022-07-29T15:34:46.609Z,58.20
2022-07-29T15:37:16.158Z,58.10
2022-07-29T15:39:43.614Z,58.30
2022-07-29T15:42:10.882Z,59.50
2022-07-29T15:44:40.312Z,59.40
2022-07-29T15:47:07.718Z,59.10
2022-07-29T15:49:46.611Z,58.70
2022-07-29T15:52:24.925Z,59.50
2022-07-29T15:54:56.149Z,60.70
2022-07-29T15:57:24.738Z,60.80
2022-07-29T15:59:52.808Z,61.00
2022-07-29T16:02:20.719Z,60.50
2022-07-29T16:04:48.378Z,59.00
2022-07-29T16:07:16.047Z,59.10
2022-07-29T16:09:50.828Z,60.20
2022-07-29T16:12:22.501Z,59.20
2022-07-29T16:14:52.476Z,60.20
2022-07-29T16:17:21.649Z,59.10
2022-07-29T16:19:49.059Z,60.20
2022-07-29T16:22:21.750Z,60.20
2022-07-29T16:24:49.054Z,60.50
2022-07-29T16:27:16.370Z,60.10
2022-07-29T16:29:43.829Z,59.60
2022-07-29T16:32:11.645Z,59.70
2022-07-29T16:34:41.066Z,58.30
2022-07-29T16:37:08.315Z,58.70
2022-07-29T16:39:35.568Z,59.10
2022-07-29T16:42:05.329Z,60.20
2022-07-29T16:44:34.109Z,59.50
2022-07-29T16:47:02.769Z,60.50
2022-07-29T16:49:31.976Z,61.20
2022-07-29T16:51:59.380Z,62.50
2022-07-29T16:54:26.823Z,61.30
2022-07-29T16:56:56.778Z,60.40
2022-07-29T16:59:24.816Z,60.50
2022-07-29T17:01:52.189Z,61.40
2022-07-29T17:04:19.480Z,61.10
2022-07-29T17:06:50.449Z,60.70
2022-07-29T17:09:22.378Z,60.30
2022-07-29T17:11:55.924Z,62.30
2022-07-29T17:14:25.429Z,62.80
2022-07-29T17:17:01.298Z,62.00
2022-07-29T17:19:31.763Z,62.60
2022-07-29T17:22:15.466Z,62.00
2022-07-29T17:24:48.929Z,61.90
2022-07-29T17:27:16.981Z,63.50
2022-07-29T17:29:49.493Z,64.40
2022-07-29T17:32:19.111Z,63.20
2022-07-29T17:34:46.426Z,63.50
2022-07-29T17:37:13.713Z,63.70
2022-07-29T17:39:42.305Z,63.90
2022-07-29T17:42:14.324Z,63.70
2022-07-29T17:44:42.680Z,63.20
2022-07-29T17:47:15.969Z,64.50
2022-07-29T17:49:45.861Z,64.40
2022-07-29T17:52:31.072Z,65.10
2022-07-29T17:54:58.804Z,65.80
2022-07-29T17:57:26.092Z,64.50
2022-07-29T17:59:53.340Z,65.20
2022-07-29T18:02:20.641Z,66.00
2022-07-29T18:04:50.652Z,66.70
2022-07-29T18:07:20.695Z,66.20
2022-07-29T18:09:50.438Z,66.70
2022-07-29T18:12:17.719Z,66.60
2022-07-29T18:14:47.576Z,66.60
2022-07-29T18:17:50.489Z,66.60
2022-07-29T18:20:07.152Z,67.20
2022-07-29T18:22:36.955Z,67.00
2022-07-29T18:25:04.489Z,67.80
2022-07-29T18:27:31.768Z,68.30
2022-07-29T18:29:59.462Z,68.90
2022-07-29T18:32:32.129Z,68.30
2022-07-29T18:35:02.583Z,68.00
2022-07-29T18:38:01.640Z,68.20
2022-07-29T18:40:21.041Z,68.70
2022-07-29T18:42:48.819Z,68.90
2022-07-29T18:45:19.549Z,68.50
2022-07-29T18:47:49.363Z,69.00
2022-07-29T18:50:17.365Z,69.30
2022-07-29T18:52:47.272Z,68.80
2022-07-29T18:55:16.938Z,69.90
2022-07-29T18:57:54.588Z,69.30
2022-07-29T19:00:23.885Z,69.70
2022-07-29T19:02:51.838Z,70.10
2022-07-29T19:05:28.410Z,70.10
2022-07-29T19:07:56.243Z,69.50
2022-07-29T19:10:23.598Z,69.60
2022-07-29T19:12:50.871Z,69.80
2022-07-29T19:15:20.881Z,70.30
2022-07-29T19:17:53.996Z,69.70
2022-07-29T19:20:27.540Z,71.90
2022-07-29T19:22:55.382Z,72.10
2022-07-29T19:25:23.249Z,71.90
2022-07-29T19:27:53.394Z,71.10
2022-07-29T19:30:20.881Z,71.30
2022-07-29T19:32:52.797Z,71.40
2022-07-29T19:35:31.249Z,71.00
2022-07-29T19:38:00.673Z,71.20
2022-07-29T19:40:29.021Z,72.30
2022-07-29T19:42:57.047Z,72.40
2022-07-29T19:48:14.782Z,72.20
2022-07-29T19:50:42.370Z,71.80
2022-07-29T19:53:12.112Z,71.80
2022-07-29T19:55:42.417Z,72.00
2022-07-29T19:58:10.331Z,71.90
2022-07-29T20:00:37.949Z,71.80
2022-07-29T20:03:10.154Z,72.10
2022-07-29T20:05:37.775Z,72.30
2022-07-29T20:08:06.237Z,72.60
2022-07-29T20:10:34.243Z,72.50
2022-07-29T20:13:01.753Z,72.70
2022-07-29T20:15:29.115Z,72.50
2022-07-29T20:17:57.611Z,72.90
2022-07-29T20:20:25.308Z,72.60
2022-07-29T20:22:53.504Z,72.70
2022-07-29T20:25:28.267Z,72.70
2022-07-29T20:27:56.078Z,73.50
2022-07-29T20:30:29.049Z,73.80
2022-07-29T20:32:58.585Z,74.00
2022-07-29T20:35:30.146Z,74.50
2022-07-29T20:37:57.517Z,74.00
2022-07-29T20:40:25.931Z,74.50
2022-07-29T20:42:57.070Z,74.90
2022-07-29T20:45:24.887Z,75.50
2022-07-29T20:47:52.695Z,75.70
2022-07-29T20:50:24.482Z,76.50
2022-07-29T20:52:52.497Z,77.40
2022-07-29T20:55:20.012Z,78.00
2022-07-29T20:57:49.816Z,78.60
2022-07-29T21:00:17.276Z,79.00
2022-07-29T21:02:44.740Z,79.30
2022-07-29T21:05:12.609Z,79.60
2022-07-29T21:07:41.992Z,79.90
2022-07-29T21:10:09.704Z,80.30
2022-07-29T21:12:37.060Z,80.30
2022-07-29T21:15:06.584Z,80.60
2022-07-29T21:17:35.997Z,80.80
2022-07-29T21:20:11.381Z,81.10
2022-07-29T21:22:41.554Z,81.40
2022-07-29T21:25:11.609Z,81.70
2022-07-29T21:27:57.081Z,82.10
2022-07-29T21:30:24.876Z,82.50
2022-07-29T21:32:52.275Z,82.60
2022-07-29T21:35:35.687Z,82.80
2022-07-29T21:38:07.261Z,84.30
2022-07-29T21:40:34.584Z,84.50
2022-07-29T21:43:06.486Z,83.80
2022-07-29T21:45:34.215Z,83.30
2022-07-29T21:48:01.567Z,83.30
2022-07-29T21:50:29.344Z,84.70
2022-07-29T21:52:56.710Z,85.10
2022-07-29T21:55:25.699Z,85.20
2022-07-29T21:57:57.651Z,85.50
2022-07-29T22:00:25.831Z,87.40
2022-07-29T22:02:53.529Z,87.50
2022-07-29T22:05:25.699Z,87.60
2022-07-29T22:07:56.521Z,88.30
2022-07-29T22:10:28.705Z,88.80
2022-07-29T22:13:00.479Z,88.20
2022-07-29T22:15:28.482Z,87.90
2022-07-29T22:17:55.945Z,87.90
2022-07-29T22:20:24.095Z,88.30
2022-07-29T22:22:51.595Z,88.50
2022-07-29T22:25:19.015Z,88.50
2022-07-29T22:27:46.539Z,88.70
2022-07-29T22:30:14.626Z,89.00
2022-07-29T22:32:45.651Z,89.10
2022-07-29T22:35:13.227Z,89.30
2022-07-29T22:37:40.540Z,89.90
2022-07-29T22:40:08.594Z,90.20
2022-07-29T22:42:36.574Z,90.20
2022-07-29T22:45:10.166Z,90.30
2022-07-29T22:47:47.881Z,90.40
2022-07-29T22:50:17.737Z,90.50
2022-07-29T22:52:46.069Z,90.70
2022-07-29T22:55:14.216Z,91.00
2022-07-29T22:57:41.669Z,91.40
2022-07-29T23:00:10.744Z,91.60
2022-07-29T23:02:41.432Z,91.90
2022-07-29T23:05:10.397Z,92.30
2022-07-29T23:07:37.922Z,92.60
2022-07-29T23:10:08.220Z,92.50
2022-07-29T23:12:35.664Z,92.70
2022-07-29T23:15:04.572Z,92.90
2022-07-29T23:17:32.307Z,93.00
2022-07-29T23:20:10.783Z,93.20
2022-07-29T23:22:40.884Z,93.30
2022-07-29T23:25:09.030Z,93.60
2022-07-29T23:27:36.819Z,93.80
2022-07-29T23:30:04.983Z,93.80
2022-07-29T23:32:32.348Z,93.90
2022-07-29T23:35:02.309Z,94.30
2022-07-29T23:37:29.802Z,94.70
2022-07-29T23:39:57.584Z,94.90
2022-07-29T23:42:25.795Z,95.10
2022-07-29T23:44:53.167Z,95.50
2022-07-29T23:47:20.442Z,95.60
2022-07-29T23:49:49.879Z,95.50
2022-07-29T23:52:18.034Z,96.00
2022-07-29T23:54:47.432Z,96.50
2022-07-29T23:57:17.781Z,96.70
2022-07-29T23:59:47.368Z,96.80
